createdAt,value
2023-04-08T00:00:20.155Z,17.6102
2023-04-08T00:01:21.516Z,17.6170
2023-04-08T00:02:23.025Z,17.6065
2023-04-08T00:03:25.364Z,17.5996
2023-04-08T00:04:25.874Z,17.6049
2023-04-08T00:05:27.272Z,17.6031
2023-04-08T00:06:28.695Z,17.6041
2023-04-08T00:07:30.755Z,17.6026
2023-04-08T00:08:31.926Z,17.5922
2023-04-08T00:09:33.385Z,17.5913
2023-04-08T00:10:34.467Z,17.5918
2023-04-08T00:11:35.812Z,17.5920
2023-04-08T00:12:37.311Z,17.5920
2023-04-08T00:13:38.721Z,17.5874
2023-04-08T00:14:40.034Z,17.5936
2023-04-08T00:15:41.572Z,17.5722
2023-04-08T00:16:43.025Z,17.5716
2023-04-08T00:17:44.417Z,17.5784
2023-04-08T00:18:45.867Z,17.5788
2023-04-08T00:19:47.339Z,17.5708
2023-04-08T00:20:48.749Z,17.5679
2023-04-08T00:21:50.236Z,17.5698
2023-04-08T00:22:51.610Z,17.5630
2023-04-08T00:23:53.004Z,17.5659
2023-04-08T00:24:54.874Z,17.5642
2023-04-08T00:25:55.884Z,17.5640
2023-04-08T00:26:57.319Z,17.5548
2023-04-08T00:27:58.716Z,17.5492
2023-04-08T00:29:00.186Z,17.5552
2023-04-08T00:30:01.666Z,17.5507
2023-04-08T00:31:03.199Z,17.5474
2023-04-08T00:32:04.485Z,17.5406
2023-04-08T00:33:06.028Z,17.5464
2023-04-08T00:34:07.333Z,17.5423
2023-04-08T00:35:08.786Z,17.5147
2023-04-08T00:36:10.190Z,17.5201
2023-04-08T00:37:11.701Z,17.5199
2023-04-08T00:38:13.028Z,17.5192
2023-04-08T00:39:14.561Z,17.5221
2023-04-08T00:40:15.931Z,17.5125
2023-04-08T00:41:17.416Z,17.4907
2023-04-08T00:42:18.771Z,17.4901
2023-04-08T00:43:20.223Z,17.5010
2023-04-08T00:44:21.668Z,17.4960
2023-04-08T00:45:23.045Z,17.5026
2023-04-08T00:46:25.352Z,17.5012
2023-04-08T00:47:25.901Z,17.4907
2023-04-08T00:48:27.284Z,17.4732
2023-04-08T00:49:28.750Z,17.4554
2023-04-08T00:50:30.201Z,17.4821
2023-04-08T00:51:31.676Z,17.4767
2023-04-08T00:52:33.031Z,17.4810
2023-04-08T00:53:34.476Z,17.4679
2023-04-08T00:54:35.851Z,17.4704
2023-04-08T00:55:37.366Z,17.4580
2023-04-08T00:56:38.749Z,17.4449
2023-04-08T00:57:40.324Z,17.4591
2023-04-08T00:58:41.666Z,17.4679
2023-04-08T00:59:43.813Z,17.4675
2023-04-08T01:00:44.606Z,17.4644
2023-04-08T01:01:46.035Z,17.4574
2023-04-08T01:02:47.477Z,17.4441
2023-04-08T01:03:48.919Z,17.4340
2023-04-08T01:04:50.290Z,17.4550
2023-04-08T01:05:51.764Z,17.4599
2023-04-08T01:06:53.102Z,17.4667
2023-04-08T01:07:54.579Z,17.4714
2023-04-08T01:08:55.885Z,17.4621
2023-04-08T01:09:57.545Z,17.4529
2023-04-08T01:10:58.901Z,17.4266
2023-04-08T01:12:00.328Z,17.4451
2023-04-08T01:13:01.736Z,17.4511
2023-04-08T01:14:03.182Z,17.4605
2023-04-08T01:15:04.634Z,17.4556
2023-04-08T01:16:05.998Z,17.4482
2023-04-08T01:17:07.467Z,17.4408
2023-04-08T01:18:08.739Z,17.4340
2023-04-08T01:19:10.189Z,17.4346
2023-04-08T01:20:11.866Z,17.4441
2023-04-08T01:21:13.013Z,17.4562
2023-04-08T01:22:14.473Z,17.4545
2023-04-08T01:23:15.919Z,17.4638
2023-04-08T01:24:17.325Z,17.4558
2023-04-08T01:25:18.816Z,17.4603
2023-04-08T01:26:20.233Z,17.4529
2023-04-08T01:27:21.647Z,17.4621
2023-04-08T01:28:23.074Z,17.4558
2023-04-08T01:29:24.525Z,17.4531
2023-04-08T01:30:26.938Z,17.4558
2023-04-08T01:31:27.897Z,17.4599
2023-04-08T01:32:28.901Z,17.4562
2023-04-08T01:33:30.250Z,17.4539
2023-04-08T01:34:31.643Z,17.4511
2023-04-08T01:35:33.373Z,17.4523
2023-04-08T01:36:34.518Z,17.4511
2023-04-08T01:37:35.904Z,17.4449
2023-04-08T01:38:37.363Z,17.4455
2023-04-08T01:39:38.776Z,17.4478
2023-04-08T01:40:40.278Z,17.4502
2023-04-08T01:41:41.699Z,17.4455
2023-04-08T01:42:43.041Z,17.4270
2023-04-08T01:43:44.543Z,17.4194
2023-04-08T01:44:46.000Z,17.4250
2023-04-08T01:45:47.386Z,17.4283
2023-04-08T01:46:48.871Z,17.4270
2023-04-08T01:47:50.303Z,17.4309
2023-04-08T01:48:51.974Z,17.4032
2023-04-08T01:49:53.089Z,17.3853
2023-04-08T01:50:54.592Z,17.3773
2023-04-08T01:51:55.959Z,17.3987
2023-04-08T01:52:57.370Z,17.3987
2023-04-08T01:53:58.870Z,17.4087
2023-04-08T01:55:00.319Z,17.4112
2023-04-08T01:56:01.677Z,17.3952
2023-04-08T01:57:03.081Z,17.3742
2023-04-08T01:58:04.495Z,17.3603
2023-04-08T01:59:05.930Z,17.3794
2023-04-08T02:00:07.371Z,17.3890
2023-04-08T02:01:08.773Z,17.3952
2023-04-08T02:02:10.253Z,17.3868
2023-04-08T02:03:11.837Z,17.3864
2023-04-08T02:04:13.208Z,17.3640
2023-04-08T02:05:14.549Z,17.3592
2023-04-08T02:06:15.964Z,17.3757
2023-04-08T02:07:17.377Z,17.3839
2023-04-08T02:08:18.766Z,17.3870
2023-04-08T02:09:20.211Z,17.3810
2023-04-08T02:10:21.640Z,17.3767
2023-04-08T02:11:23.138Z,17.3679
2023-04-08T02:12:24.903Z,17.3609
2023-04-08T02:13:25.900Z,17.3810
2023-04-08T02:14:27.326Z,17.3894
2023-04-08T02:15:28.836Z,17.3890
2023-04-08T02:16:30.316Z,17.3759
2023-04-08T02:17:32.359Z,17.3586
2023-04-08T02:18:33.103Z,17.3562
2023-04-08T02:19:34.510Z,17.3679
2023-04-08T02:20:35.974Z,17.3726
2023-04-08T02:21:37.461Z,17.3726
2023-04-08T02:22:38.822Z,17.3769
2023-04-08T02:23:40.261Z,17.3670
2023-04-08T02:24:41.664Z,17.3553
2023-04-08T02:25:43.091Z,17.3440
2023-04-08T02:26:44.583Z,17.3584
2023-04-08T02:27:45.983Z,17.3740
2023-04-08T02:28:47.607Z,17.3779
2023-04-08T02:29:48.880Z,17.3822
2023-04-08T02:30:50.267Z,17.3689
2023-04-08T02:31:51.728Z,17.3543
2023-04-08T02:32:53.222Z,17.3683
2023-04-08T02:33:54.542Z,17.3670
2023-04-08T02:34:55.977Z,17.3742
2023-04-08T02:35:57.433Z,17.3792
2023-04-08T02:36:58.894Z,17.3746
2023-04-08T02:38:00.255Z,17.3829
2023-04-08T02:39:01.764Z,17.3804
2023-04-08T02:40:03.102Z,17.3658
2023-04-08T02:41:04.543Z,17.3730
2023-04-08T02:42:06.017Z,17.3833
2023-04-08T02:43:07.413Z,17.3847
2023-04-08T02:44:08.843Z,17.3810
2023-04-08T02:45:10.257Z,17.3824
2023-04-08T02:46:11.752Z,17.3625
2023-04-08T02:47:13.158Z,17.3662
2023-04-08T02:48:14.538Z,17.3580
2023-04-08T02:49:15.961Z,17.3594
2023-04-08T02:50:17.397Z,17.3720
2023-04-08T02:51:18.848Z,17.3767
2023-04-08T02:52:20.264Z,17.3650
2023-04-08T02:53:21.883Z,17.3564
2023-04-08T02:54:23.099Z,17.3761
2023-04-08T02:55:24.516Z,17.3664
2023-04-08T02:56:26.029Z,17.3672
2023-04-08T02:57:27.498Z,17.3960
2023-04-08T02:58:28.808Z,17.4207
2023-04-08T02:59:30.214Z,17.4523
2023-04-08T03:00:31.735Z,17.4780
2023-04-08T03:01:33.224Z,17.4975
2023-04-08T03:02:34.983Z,17.5131
2023-04-08T03:03:36.054Z,17.5375
2023-04-08T03:04:37.480Z,17.5536
2023-04-08T03:05:38.804Z,17.5685
2023-04-08T03:06:40.235Z,17.5897
2023-04-08T03:07:41.674Z,17.6090
2023-04-08T03:08:43.111Z,17.6337
2023-04-08T03:09:44.540Z,17.6454
2023-04-08T03:10:46.003Z,17.6628
2023-04-08T03:11:47.413Z,17.6873
2023-04-08T03:12:48.887Z,17.7068
2023-04-08T03:13:50.311Z,17.7240
2023-04-08T03:14:52.364Z,17.7364
2023-04-08T03:15:53.167Z,17.7542
2023-04-08T03:16:54.619Z,17.7748
2023-04-08T03:17:56.095Z,17.7883
2023-04-08T03:18:57.462Z,17.8089
2023-04-08T03:19:58.858Z,17.8327
2023-04-08T03:21:00.293Z,17.8452
2023-04-08T03:22:01.700Z,17.8643
2023-04-08T03:23:03.142Z,17.8787
2023-04-08T03:24:04.543Z,17.8949
2023-04-08T03:25:05.988Z,17.9085
2023-04-08T03:26:07.412Z,17.9264
2023-04-08T03:27:08.818Z,17.9471
2023-04-08T03:28:10.253Z,17.9672
2023-04-08T03:29:11.649Z,17.9738
2023-04-08T03:30:13.064Z,17.9785
2023-04-08T03:31:14.530Z,17.9956
2023-04-08T03:32:15.918Z,18.0147
2023-04-08T03:33:17.405Z,18.0334
2023-04-08T03:34:18.747Z,18.0404
2023-04-08T03:35:20.232Z,18.0543
2023-04-08T03:36:21.724Z,18.0619
2023-04-08T03:37:23.046Z,18.0796
2023-04-08T03:38:24.516Z,18.0993
2023-04-08T03:39:25.917Z,18.1153
2023-04-08T03:40:27.361Z,18.1285
2023-04-08T03:41:28.762Z,18.1468
2023-04-08T03:42:30.212Z,18.1544
2023-04-08T03:43:32.013Z,18.1712
2023-04-08T03:44:33.247Z,18.1842
2023-04-08T03:45:34.600Z,18.1965
2023-04-08T03:46:36.036Z,18.2106
2023-04-08T03:47:37.587Z,18.2162
2023-04-08T03:48:38.914Z,18.2215
2023-04-08T03:49:40.200Z,18.2425
2023-04-08T03:50:41.723Z,18.2521
2023-04-08T03:51:43.051Z,18.2622
2023-04-08T03:52:44.655Z,18.2756
2023-04-08T03:53:47.038Z,18.2885
2023-04-08T03:54:47.433Z,18.3004
2023-04-08T03:55:48.839Z,18.3127
2023-04-08T03:56:50.255Z,18.3331
2023-04-08T03:57:51.783Z,18.3491
2023-04-08T03:58:53.163Z,18.3495
2023-04-08T03:59:54.563Z,18.3557
2023-04-08T04:00:56.094Z,18.3696
2023-04-08T04:01:57.471Z,18.3727
2023-04-08T04:02:58.896Z,18.3910
2023-04-08T04:04:00.501Z,18.3996
2023-04-08T04:05:01.806Z,18.4076
2023-04-08T04:06:03.113Z,18.4228
2023-04-08T04:07:04.454Z,18.4308
2023-04-08T04:08:05.985Z,18.4397
2023-04-08T04:09:07.396Z,18.4479
2023-04-08T04:10:08.795Z,18.4705
2023-04-08T04:11:10.208Z,18.4818
2023-04-08T04:12:11.602Z,18.4849
2023-04-08T04:13:13.063Z,18.4937
2023-04-08T04:14:14.448Z,18.5046
2023-04-08T04:15:15.981Z,18.5099
2023-04-08T04:16:17.421Z,18.5173
2023-04-08T04:17:18.748Z,18.5331
2023-04-08T04:18:20.194Z,18.5409
2023-04-08T04:19:21.611Z,18.5483
2023-04-08T04:20:23.090Z,18.5598
2023-04-08T04:21:24.429Z,18.5623
2023-04-08T04:22:25.938Z,18.5703
2023-04-08T04:23:27.299Z,18.5697
2023-04-08T04:24:28.788Z,18.5865
2023-04-08T04:25:30.213Z,18.5946
2023-04-08T04:26:31.497Z,18.5974
2023-04-08T04:27:32.997Z,18.6009
2023-04-08T04:28:34.970Z,18.6147
2023-04-08T04:29:35.908Z,18.6188
2023-04-08T04:30:37.987Z,18.6315
2023-04-08T04:31:38.885Z,18.6395
2023-04-08T04:32:40.242Z,18.6422
2023-04-08T04:33:41.665Z,18.6395
2023-04-08T04:34:43.911Z,18.6517
2023-04-08T04:35:44.467Z,18.6570
2023-04-08T04:36:45.892Z,18.6570
2023-04-08T04:37:47.328Z,18.6617
2023-04-08T04:38:50.386Z,18.6740
2023-04-08T04:39:50.162Z,18.6827
2023-04-08T04:40:51.955Z,18.7024
2023-04-08T04:41:53.072Z,18.6991
2023-04-08T04:42:54.469Z,18.7034
2023-04-08T04:43:55.828Z,18.7077
2023-04-08T04:44:57.360Z,18.7188
2023-04-08T04:45:58.809Z,18.7219
2023-04-08T04:47:00.130Z,18.7305
2023-04-08T04:48:01.655Z,18.7410
2023-04-08T04:49:03.013Z,18.7519
2023-04-08T04:50:04.448Z,18.7511
2023-04-08T04:51:05.907Z,18.7556
2023-04-08T04:52:07.277Z,18.7599
2023-04-08T04:53:08.713Z,18.7753
2023-04-08T04:54:10.139Z,18.7731
2023-04-08T04:55:11.594Z,18.7860
2023-04-08T04:56:13.047Z,18.7963
2023-04-08T04:57:14.417Z,18.8020
2023-04-08T04:58:15.820Z,18.8108
2023-04-08T04:59:17.342Z,18.8108
2023-04-08T05:00:19.441Z,18.8170
2023-04-08T05:01:20.382Z,18.8248
2023-04-08T05:02:21.644Z,18.8359
2023-04-08T05:03:23.082Z,18.8365
2023-04-08T05:04:24.395Z,18.8314
2023-04-08T05:05:25.845Z,18.8326
2023-04-08T05:06:27.303Z,18.8332
2023-04-08T05:07:28.695Z,18.8390
2023-04-08T05:08:30.173Z,18.8404
2023-04-08T05:09:31.645Z,18.8493
2023-04-08T05:10:33.019Z,18.8579
2023-04-08T05:11:34.454Z,18.8439
2023-04-08T05:12:35.910Z,18.8396
2023-04-08T05:13:37.244Z,18.8476
2023-04-08T05:14:38.801Z,18.8597
2023-04-08T05:15:40.316Z,18.8558
2023-04-08T05:16:41.681Z,18.8612
2023-04-08T05:17:43.128Z,18.8521
2023-04-08T05:18:44.448Z,18.8523
2023-04-08T05:19:45.860Z,18.8610
2023-04-08T05:20:47.241Z,18.8667
2023-04-08T05:21:48.786Z,18.8733
2023-04-08T05:22:50.102Z,18.8712
2023-04-08T05:23:51.840Z,18.8723
2023-04-08T05:24:52.985Z,18.8758
2023-04-08T05:25:54.545Z,18.8758
2023-04-08T05:26:56.007Z,18.8764
2023-04-08T05:27:57.425Z,18.8710
2023-04-08T05:28:58.846Z,18.8758
2023-04-08T05:30:00.246Z,18.8776
2023-04-08T05:31:01.650Z,18.8682
2023-04-08T05:32:03.106Z,18.8682
2023-04-08T05:33:04.554Z,18.8671
2023-04-08T05:34:05.988Z,18.8731
2023-04-08T05:35:07.369Z,18.8737
2023-04-08T05:36:08.700Z,18.8850
2023-04-08T05:37:10.301Z,18.8846
2023-04-08T05:38:11.669Z,18.8842
2023-04-08T05:39:13.052Z,18.8823
2023-04-08T05:40:14.488Z,18.8897
2023-04-08T05:41:15.895Z,18.8753
2023-04-08T05:42:17.415Z,18.8638
2023-04-08T05:43:18.762Z,18.8548
2023-04-08T05:44:20.218Z,18.8747
2023-04-08T05:45:21.691Z,18.8905
2023-04-08T05:46:23.053Z,18.9000
2023-04-08T05:47:24.631Z,18.8871
2023-04-08T05:48:25.901Z,18.8813
2023-04-08T05:49:27.386Z,18.8601
2023-04-08T05:50:29.225Z,18.8879
2023-04-08T05:51:30.258Z,18.9146
2023-04-08T05:52:31.604Z,18.9290
2023-04-08T05:53:33.038Z,18.9181
2023-04-08T05:54:34.512Z,18.9096
2023-04-08T05:55:36.547Z,18.8889
2023-04-08T05:56:37.330Z,18.9027
2023-04-08T05:57:39.676Z,18.9479
2023-04-08T05:58:40.125Z,18.9585
2023-04-08T05:59:41.550Z,18.9592
2023-04-08T06:00:42.942Z,18.9587
2023-04-08T06:01:44.453Z,18.9074
2023-04-08T06:02:46.408Z,18.9411
2023-04-08T06:03:48.058Z,18.9822
2023-04-08T06:04:48.782Z,18.9967
2023-04-08T06:05:50.130Z,19.0002
2023-04-08T06:06:51.538Z,19.0097
2023-04-08T06:07:53.009Z,18.9721
2023-04-08T06:08:54.370Z,19.0202
2023-04-08T06:09:55.972Z,19.0512
2023-04-08T06:10:57.237Z,19.0485
2023-04-08T06:11:58.712Z,19.0526
2023-04-08T06:13:00.510Z,19.0596
2023-04-08T06:14:01.490Z,19.0598
2023-04-08T06:15:02.939Z,19.0949
2023-04-08T06:16:04.361Z,19.1181
2023-04-08T06:17:05.879Z,19.1204
2023-04-08T06:18:07.486Z,19.1245
2023-04-08T06:19:08.614Z,19.1270
2023-04-08T06:20:10.149Z,19.1469
2023-04-08T06:21:11.546Z,19.1756
2023-04-08T06:22:12.922Z,19.1945
2023-04-08T06:23:14.493Z,19.1880
2023-04-08T06:24:15.803Z,19.2061
2023-04-08T06:25:17.189Z,19.1960
2023-04-08T06:26:18.630Z,19.2134
2023-04-08T06:27:20.122Z,19.2562
2023-04-08T06:28:22.068Z,19.2638
2023-04-08T06:29:23.022Z,19.2671
2023-04-08T06:30:24.336Z,19.2841
2023-04-08T06:31:25.796Z,19.2724
2023-04-08T06:32:27.318Z,19.3135
2023-04-08T06:33:28.813Z,19.3373
2023-04-08T06:34:30.080Z,19.3342
2023-04-08T06:35:32.613Z,19.3468
2023-04-08T06:36:32.978Z,19.3548
2023-04-08T06:37:34.316Z,19.3800
2023-04-08T06:38:35.722Z,19.4129
2023-04-08T06:39:37.137Z,19.4228
2023-04-08T06:40:38.554Z,19.4295
2023-04-08T06:41:39.985Z,19.4468
2023-04-08T06:42:41.503Z,19.4513
2023-04-08T06:43:43.091Z,19.4797
2023-04-08T06:44:44.448Z,19.5088
2023-04-08T06:45:45.852Z,19.5115
2023-04-08T06:46:47.257Z,19.5092
2023-04-08T06:47:48.626Z,19.5281
2023-04-08T06:48:50.238Z,19.5398
2023-04-08T06:49:51.547Z,19.5731
2023-04-08T06:50:53.068Z,19.5984
2023-04-08T06:51:54.391Z,19.5978
2023-04-08T06:52:55.669Z,19.6142
2023-04-08T06:53:57.225Z,19.6364
2023-04-08T06:54:58.629Z,19.6731
2023-04-08T06:56:00.100Z,19.7153
2023-04-08T06:57:01.487Z,19.7376
2023-04-08T06:58:02.902Z,19.7633
2023-04-08T06:59:05.625Z,19.7995
2023-04-08T07:00:05.783Z,19.8299
2023-04-08T07:01:07.261Z,19.8761
2023-04-08T07:02:08.560Z,19.9090
2023-04-08T07:03:10.087Z,19.9110
2023-04-08T07:04:12.463Z,19.9270
2023-04-08T07:05:12.858Z,19.9258
2023-04-08T07:06:14.434Z,19.9408
2023-04-08T07:07:15.759Z,19.9689
2023-04-08T07:08:17.165Z,19.9969
2023-04-08T07:09:18.587Z,19.9889
2023-04-08T07:10:20.119Z,19.9856
2023-04-08T07:11:21.932Z,19.9891
2023-04-08T07:12:22.844Z,20.0114
2023-04-08T07:13:24.280Z,20.0324
2023-04-08T07:14:25.750Z,20.0488
2023-04-08T07:15:27.104Z,20.0412
2023-04-08T07:16:28.542Z,20.0353
2023-04-08T07:17:29.969Z,20.0281
2023-04-08T07:18:31.372Z,20.0616
2023-04-08T07:19:32.859Z,20.1047
2023-04-08T07:20:34.216Z,20.1257
2023-04-08T07:21:35.705Z,20.1349
2023-04-08T07:22:37.093Z,20.1460
2023-04-08T07:23:38.453Z,20.1871
2023-04-08T07:24:40.010Z,20.2335
2023-04-08T07:25:41.615Z,20.2803
2023-04-08T07:26:42.810Z,20.2912
2023-04-08T07:27:44.286Z,20.2976
2023-04-08T07:28:45.672Z,20.3083
2023-04-08T07:29:47.937Z,20.3356
2023-04-08T07:30:48.576Z,20.3578
2023-04-08T07:31:50.034Z,20.3506
2023-04-08T07:32:51.499Z,20.3253
2023-04-08T07:33:52.910Z,20.2990
2023-04-08T07:34:54.280Z,20.2814
2023-04-08T07:35:55.674Z,20.2996
2023-04-08T07:36:57.133Z,20.3187
2023-04-08T07:37:58.595Z,20.3276
2023-04-08T07:39:00.101Z,20.3224
2023-04-08T07:40:01.456Z,20.3097
2023-04-08T07:41:02.811Z,20.3126
2023-04-08T07:42:04.249Z,20.3321
2023-04-08T07:43:05.743Z,20.3699
2023-04-08T07:44:07.132Z,20.3908
2023-04-08T07:45:08.458Z,20.3945
2023-04-08T07:46:10.008Z,20.3917
2023-04-08T07:47:11.406Z,20.3915
2023-04-08T07:48:12.785Z,20.4106
2023-04-08T07:49:14.195Z,20.4525
2023-04-08T07:50:15.690Z,20.4707
2023-04-08T07:51:17.049Z,20.4675
2023-04-08T07:52:18.381Z,20.4582
2023-04-08T07:53:20.101Z,20.4724
2023-04-08T07:54:21.272Z,20.4864
2023-04-08T07:55:22.751Z,20.5200
2023-04-08T07:56:24.143Z,20.5252
2023-04-08T07:57:25.582Z,20.5172
2023-04-08T07:58:26.980Z,20.4989
2023-04-08T07:59:28.325Z,20.5126
2023-04-08T08:00:29.869Z,20.5369
2023-04-08T08:01:31.511Z,20.5558
2023-04-08T08:02:32.827Z,20.5761
2023-04-08T08:03:34.457Z,20.5708
2023-04-08T08:04:35.752Z,20.5531
2023-04-08T08:05:37.120Z,20.5671
2023-04-08T08:06:38.379Z,20.5967
2023-04-08T08:07:39.860Z,20.6285
2023-04-08T08:08:41.192Z,20.6328
2023-04-08T08:09:42.625Z,20.6283
2023-04-08T08:10:44.091Z,20.6355
2023-04-08T08:11:45.496Z,20.6519
2023-04-08T08:12:46.950Z,20.6936
2023-04-08T08:13:48.490Z,20.7119
2023-04-08T08:14:49.784Z,20.7078
2023-04-08T08:15:51.256Z,20.7082
2023-04-08T08:16:52.726Z,20.7141
2023-04-08T08:17:54.144Z,20.7378
2023-04-08T08:18:55.518Z,20.7717
2023-04-08T08:19:56.981Z,20.7977
2023-04-08T08:20:58.328Z,20.8064
2023-04-08T08:21:59.864Z,20.8039
2023-04-08T08:23:01.190Z,20.8045
2023-04-08T08:24:02.701Z,20.8238
2023-04-08T08:25:04.120Z,20.8378
2023-04-08T08:26:05.505Z,20.8485
2023-04-08T08:27:06.991Z,20.8366
2023-04-08T08:28:08.290Z,20.8240
2023-04-08T08:29:09.752Z,20.8181
2023-04-08T08:30:11.140Z,20.8403
2023-04-08T08:31:12.716Z,20.8651
2023-04-08T08:32:13.960Z,20.8762
2023-04-08T08:33:15.470Z,20.8674
2023-04-08T08:34:16.889Z,20.8577
2023-04-08T08:35:18.244Z,20.8561
2023-04-08T08:36:19.820Z,20.8770
2023-04-08T08:37:21.188Z,20.9117
2023-04-08T08:38:22.623Z,20.9288
2023-04-08T08:39:24.018Z,20.9154
2023-04-08T08:40:25.486Z,20.9070
2023-04-08T08:41:26.922Z,20.9115
2023-04-08T08:42:28.260Z,20.9382
2023-04-08T08:43:29.719Z,20.9758
2023-04-08T08:44:31.131Z,20.9853
2023-04-08T08:45:32.602Z,20.9787
2023-04-08T08:46:34.176Z,20.9643
2023-04-08T08:47:35.466Z,20.9689
2023-04-08T08:48:36.831Z,21.0114
2023-04-08T08:49:38.323Z,21.0510
2023-04-08T08:50:39.813Z,21.0547
2023-04-08T08:51:41.189Z,21.0549
2023-04-08T08:52:42.649Z,21.0537
2023-04-08T08:53:43.931Z,21.0789
2023-04-08T08:54:45.327Z,21.1083
2023-04-08T08:56:13.507Z,21.1383
2023-04-08T08:56:48.326Z,21.1404
2023-04-08T08:57:49.718Z,21.1266
2023-04-08T08:58:51.221Z,21.1112
2023-04-08T08:59:52.678Z,21.1287
2023-04-08T09:00:54.112Z,21.1621
2023-04-08T09:01:55.630Z,21.1794
2023-04-08T09:02:57.200Z,21.1667
2023-04-08T09:03:58.450Z,21.1603
2023-04-08T09:04:59.963Z,21.1599
2023-04-08T09:06:01.290Z,21.1632
2023-04-08T09:07:02.696Z,21.2018
2023-04-08T09:08:04.124Z,21.2268
2023-04-08T09:09:05.526Z,21.2229
2023-04-08T09:10:06.937Z,21.2129
2023-04-08T09:11:08.416Z,21.2018
2023-04-08T09:12:09.812Z,21.2184
2023-04-08T09:13:11.247Z,21.2542
2023-04-08T09:14:12.614Z,21.2704
2023-04-08T09:15:14.081Z,21.2673
2023-04-08T09:16:15.612Z,21.2583
2023-04-08T09:17:16.962Z,21.2554
2023-04-08T09:18:18.416Z,21.3246
2023-04-08T09:19:19.845Z,21.3984
2023-04-08T09:20:21.278Z,21.4495
2023-04-08T09:21:22.706Z,21.4994
2023-04-08T09:22:24.074Z,21.5241
2023-04-08T09:23:25.507Z,21.5134
2023-04-08T09:24:26.876Z,21.5259
2023-04-08T09:25:28.242Z,21.6011
2023-04-08T09:26:29.818Z,21.6656
2023-04-08T09:27:31.227Z,21.6845
2023-04-08T09:28:32.585Z,21.6504
2023-04-08T09:29:35.237Z,21.5791
2023-04-08T09:30:35.445Z,21.5526
2023-04-08T09:31:37.742Z,21.5711
2023-04-08T09:32:38.362Z,21.5602
2023-04-08T09:33:39.743Z,21.5339
2023-04-08T09:34:41.136Z,21.5013
2023-04-08T09:35:42.635Z,21.4760
2023-04-08T09:36:43.929Z,21.4546
2023-04-08T09:37:45.535Z,21.4592
2023-04-08T09:38:46.983Z,21.4774
2023-04-08T09:39:48.313Z,21.4559
2023-04-08T09:40:49.793Z,21.4294
2023-04-08T09:41:51.250Z,21.3984
2023-04-08T09:42:52.607Z,21.3906
2023-04-08T09:43:53.982Z,21.4004
2023-04-08T09:44:55.402Z,21.4257
2023-04-08T09:45:56.916Z,21.4257
2023-04-08T09:46:58.398Z,21.4146
2023-04-08T09:47:59.829Z,21.3953
2023-04-08T09:49:01.653Z,21.3858
2023-04-08T09:50:02.624Z,21.4086
2023-04-08T09:51:03.994Z,21.4474
2023-04-08T09:52:05.423Z,21.5000
2023-04-08T09:53:06.886Z,21.5347
2023-04-08T09:54:08.257Z,21.5241
2023-04-08T09:55:09.668Z,21.5218
2023-04-08T09:56:11.103Z,21.5389
2023-04-08T09:57:12.564Z,21.5779
2023-04-08T09:58:13.851Z,21.5849
2023-04-08T09:59:15.331Z,21.5752
2023-04-08T10:00:16.846Z,21.5853
2023-04-08T10:01:18.343Z,21.5896
2023-04-08T10:02:19.851Z,21.5762
2023-04-08T10:03:21.388Z,21.6161
2023-04-08T10:04:22.831Z,21.6243
2023-04-08T10:05:24.093Z,21.6299
2023-04-08T10:06:25.435Z,21.6183
2023-04-08T10:07:27.621Z,21.6286
2023-04-08T10:08:28.275Z,21.6516
2023-04-08T10:09:29.722Z,21.6672
2023-04-08T10:10:31.049Z,21.6724
2023-04-08T10:11:32.544Z,21.6644
2023-04-08T10:12:33.996Z,21.6627
2023-04-08T10:13:35.525Z,21.6777
2023-04-08T10:14:36.806Z,21.7204
2023-04-08T10:15:38.276Z,21.7362
2023-04-08T10:16:39.642Z,21.7356
2023-04-08T10:17:41.063Z,21.7377
2023-04-08T10:18:42.542Z,21.7434
2023-04-08T10:19:43.932Z,21.7872
2023-04-08T10:20:45.327Z,21.8383
2023-04-08T10:21:47.702Z,21.8685
2023-04-08T10:22:48.207Z,21.8852
2023-04-08T10:23:49.959Z,21.8889
2023-04-08T10:24:51.161Z,21.9086
2023-04-08T10:25:52.483Z,21.9445
2023-04-08T10:26:53.982Z,22.0214
2023-04-08T10:27:55.323Z,22.0764
2023-04-08T10:28:56.829Z,22.1516
2023-04-08T10:29:58.211Z,22.2025
2023-04-08T10:30:59.499Z,22.2097
2023-04-08T10:32:01.049Z,22.2231
2023-04-08T10:33:02.444Z,22.2572
2023-04-08T10:34:03.854Z,22.2656
2023-04-08T10:35:05.208Z,22.2594
2023-04-08T10:36:06.693Z,22.2448
2023-04-08T10:37:08.028Z,22.2541
2023-04-08T10:38:09.448Z,22.2738
2023-04-08T10:39:11.092Z,22.2623
2023-04-08T10:40:12.340Z,22.2448
2023-04-08T10:41:13.780Z,22.2126
2023-04-08T10:42:15.214Z,22.1779
2023-04-08T10:43:16.573Z,22.1621
2023-04-08T10:44:18.012Z,22.1740
2023-04-08T10:45:19.514Z,22.1740
2023-04-08T10:46:21.035Z,22.1487
2023-04-08T10:47:22.405Z,22.1101
2023-04-08T10:48:23.699Z,22.0780
2023-04-08T10:49:25.146Z,22.0620
2023-04-08T10:50:26.731Z,22.0830
2023-04-08T10:51:28.397Z,22.0676
2023-04-08T10:52:29.445Z,22.0513
2023-04-08T10:53:30.911Z,22.0131
2023-04-08T10:54:32.323Z,21.9887
2023-04-08T10:55:34.680Z,21.9965
2023-04-08T10:56:35.191Z,22.0025
2023-04-08T10:57:36.630Z,22.0006
2023-04-08T10:58:38.049Z,21.9801
2023-04-08T10:59:39.455Z,21.9599
2023-04-08T11:00:40.979Z,21.9326
2023-04-08T11:01:42.350Z,21.9583
2023-04-08T11:02:43.824Z,21.9790
2023-04-08T11:03:45.205Z,21.9825
2023-04-08T11:04:46.594Z,21.9784
2023-04-08T11:05:48.088Z,21.9620
2023-04-08T11:06:49.431Z,21.9449
2023-04-08T11:07:50.900Z,21.9470
2023-04-08T11:08:52.273Z,21.9696
2023-04-08T11:09:53.733Z,21.9721
2023-04-08T11:10:55.186Z,21.9655
2023-04-08T11:11:56.547Z,21.9575
2023-04-08T11:12:58.014Z,21.9601
2023-04-08T11:13:59.400Z,21.9737
2023-04-08T11:15:00.830Z,21.9907
2023-04-08T11:16:02.340Z,21.9866
2023-04-08T11:17:03.696Z,21.9914
2023-04-08T11:18:05.102Z,22.0023
2023-04-08T11:19:06.486Z,22.0187
2023-04-08T11:20:07.919Z,22.0368
2023-04-08T11:21:09.359Z,22.0563
2023-04-08T11:22:11.240Z,22.0667
2023-04-08T11:23:12.346Z,22.0813
2023-04-08T11:24:13.752Z,22.0951
2023-04-08T11:25:15.196Z,22.1152
2023-04-08T11:26:16.590Z,22.1407
2023-04-08T11:27:18.160Z,22.1705
2023-04-08T11:28:19.504Z,22.1824
2023-04-08T11:29:20.892Z,22.1873
2023-04-08T11:30:22.357Z,22.2046
2023-04-08T11:31:24.887Z,22.2358
2023-04-08T11:32:25.207Z,22.2578
2023-04-08T11:33:26.668Z,22.2822
2023-04-08T11:34:28.022Z,22.3003
2023-04-08T11:35:29.430Z,22.3161
2023-04-08T11:36:30.899Z,22.3293
2023-04-08T11:37:32.405Z,22.3459
2023-04-08T11:38:33.831Z,22.3728
2023-04-08T11:39:35.067Z,22.3983
2023-04-08T11:40:36.580Z,22.4246
2023-04-08T11:41:38.040Z,22.4392
2023-04-08T11:42:39.456Z,22.4550
2023-04-08T11:43:40.836Z,22.4613
2023-04-08T11:44:42.291Z,22.4825
2023-04-08T11:45:43.657Z,22.4977
2023-04-08T11:46:45.168Z,22.5228
2023-04-08T11:47:46.611Z,22.5460
2023-04-08T11:48:48.623Z,22.5583
2023-04-08T11:49:49.449Z,22.5645
2023-04-08T11:50:50.849Z,22.5694
2023-04-08T11:51:52.286Z,22.5870
2023-04-08T11:52:53.752Z,22.6098
2023-04-08T11:53:56.332Z,22.6376
2023-04-08T11:54:56.516Z,22.6462
2023-04-08T11:55:57.935Z,22.6513
2023-04-08T11:56:59.404Z,22.6678
2023-04-08T11:58:00.820Z,22.6774
2023-04-08T11:59:02.285Z,22.6965
2023-04-08T12:00:04.641Z,22.7220
2023-04-08T12:01:05.100Z,22.7536
2023-04-08T12:02:06.687Z,22.7797
2023-04-08T12:03:08.028Z,22.7972
2023-04-08T12:04:09.538Z,22.8286
2023-04-08T12:05:10.820Z,22.8580
2023-04-08T12:06:12.177Z,22.8986
2023-04-08T12:07:13.685Z,22.9369
2023-04-08T12:08:15.084Z,22.9699
2023-04-08T12:09:16.499Z,22.9987
2023-04-08T12:10:17.916Z,23.0188
2023-04-08T12:11:20.239Z,23.0242
2023-04-08T12:12:20.860Z,23.0126
2023-04-08T12:13:22.188Z,23.0223
2023-04-08T12:14:23.620Z,23.0315
2023-04-08T12:15:25.050Z,23.0418
2023-04-08T12:16:26.734Z,23.0338
2023-04-08T12:17:27.933Z,23.0227
2023-04-08T12:18:29.395Z,22.9999
2023-04-08T12:19:32.276Z,22.9882
2023-04-08T12:20:32.214Z,22.9783
2023-04-08T12:21:33.675Z,22.9767
2023-04-08T12:22:35.133Z,22.9670